createdAt,value
2017-02-14T00:00:27.587Z,0
2017-02-14T00:01:36.642Z,0
2017-02-14T00:02:45.722Z,0
2017-02-14T00:03:55.190Z,0
2017-02-14T00:05:04.266Z,0
2017-02-14T00:06:13.341Z,0
2017-02-14T00:07:22.024Z,0
2017-02-14T00:08:31.474Z,0
2017-02-14T00:09:40.906Z,0
2017-02-14T00:10:49.614Z,0
2017-02-14T00:11:59.447Z,0
2017-02-14T00:13:08.505Z,0
2017-02-14T00:14:18.339Z,0
2017-02-14T00:15:27.414Z,0
2017-02-14T00:16:37.259Z,0
2017-02-14T00:17:46.325Z,0
2017-02-14T00:18:55.772Z,0
2017-02-14T00:20:04.452Z,0
2017-02-14T00:21:13.542Z,0
2017-02-14T00:22:23.021Z,0
2017-02-14T00:23:32.466Z,0
2017-02-14T00:24:42.690Z,0
2017-02-14T00:25:52.533Z,0
2017-02-14T00:27:02.006Z,0
2017-02-14T00:28:11.092Z,0
2017-02-14T00:29:20.554Z,0
2017-02-14T00:30:30.408Z,0
2017-02-14T00:31:39.115Z,0
2017-02-14T00:32:48.577Z,0
2017-02-14T00:33:57.690Z,0
2017-02-14T00:35:07.505Z,0
2017-02-14T00:36:16.995Z,0
2017-02-14T00:37:26.067Z,0
2017-02-14T00:38:34.760Z,0
2017-02-14T00:39:44.580Z,0
2017-02-14T00:40:53.654Z,0
2017-02-14T00:42:03.885Z,0
2017-02-14T00:43:12.955Z,0
2017-02-14T00:44:22.436Z,0
2017-02-14T00:45:32.323Z,0
2017-02-14T00:46:41.399Z,0
2017-02-14T00:47:51.248Z,0
2017-02-14T00:49:00.707Z,0
2017-02-14T00:50:10.955Z,0
2017-02-14T00:51:20.402Z,0
2017-02-14T00:52:29.472Z,0
2017-02-14T00:53:38.906Z,0
2017-02-14T00:54:48.369Z,0
2017-02-14T00:55:57.842Z,0
2017-02-14T00:57:06.931Z,0
2017-02-14T00:58:16.367Z,0
2017-02-14T00:59:25.445Z,0
2017-02-14T01:00:34.905Z,0
2017-02-14T01:01:44.028Z,0
2017-02-14T01:02:53.154Z,0
2017-02-14T01:04:03.007Z,0
2017-02-14T01:05:13.248Z,0
2017-02-14T01:06:23.067Z,0
2017-02-14T01:07:32.142Z,0
2017-02-14T01:08:41.589Z,0
2017-02-14T01:09:50.658Z,0
2017-02-14T01:10:59.726Z,0
2017-02-14T01:12:09.552Z,0
2017-02-14T01:13:19.003Z,0
2017-02-14T01:14:27.779Z,0
2017-02-14T01:15:37.615Z,0
2017-02-14T01:16:46.676Z,0
2017-02-14T01:17:55.753Z,0
2017-02-14T01:19:04.826Z,0
2017-02-14T01:20:13.887Z,0
2017-02-14T01:21:22.953Z,0
2017-02-14T01:22:32.054Z,0
2017-02-14T01:23:41.115Z,0
2017-02-14T01:24:49.804Z,0
2017-02-14T01:25:58.870Z,0
2017-02-14T01:27:07.935Z,0
2017-02-14T01:28:16.616Z,0
2017-02-14T01:29:26.434Z,0
2017-02-14T01:30:35.514Z,0
2017-02-14T01:31:45.362Z,0
2017-02-14T01:32:54.817Z,0
2017-02-14T01:34:03.505Z,0
2017-02-14T01:35:13.329Z,0
2017-02-14T01:36:22.803Z,0
2017-02-14T01:37:32.243Z,0
2017-02-14T01:38:42.093Z,0
2017-02-14T01:39:51.931Z,0
2017-02-14T01:41:01.391Z,0
2017-02-14T01:42:10.066Z,0
2017-02-14T01:43:19.125Z,0
2017-02-14T01:44:28.962Z,0
2017-02-14T01:45:38.015Z,0
2017-02-14T01:46:47.461Z,0
2017-02-14T01:47:56.524Z,0
2017-02-14T01:49:06.375Z,0
2017-02-14T01:50:15.432Z,0
2017-02-14T01:51:24.504Z,0
2017-02-14T01:52:33.945Z,0
2017-02-14T01:53:42.653Z,0
2017-02-14T01:54:52.111Z,0
2017-02-14T01:56:01.209Z,0
2017-02-14T01:57:10.661Z,0
2017-02-14T01:58:19.754Z,0
2017-02-14T01:59:29.215Z,0
2017-02-14T02:00:38.681Z,0
2017-02-14T02:01:47.375Z,0
2017-02-14T02:02:56.810Z,0
2017-02-14T02:04:06.270Z,0
2017-02-14T02:05:15.702Z,0
2017-02-14T02:06:25.521Z,0
2017-02-14T02:07:34.972Z,0
2017-02-14T02:08:44.831Z,0
2017-02-14T02:09:54.294Z,0
2017-02-14T02:11:04.127Z,0
2017-02-14T02:12:13.564Z,0
2017-02-14T02:13:22.273Z,0
2017-02-14T02:14:31.730Z,0
2017-02-14T02:15:40.795Z,0
2017-02-14T02:16:49.885Z,0
2017-02-14T02:17:59.360Z,0
2017-02-14T02:19:08.432Z,0
2017-02-14T02:20:17.880Z,0
2017-02-14T02:21:27.329Z,0
2017-02-14T02:22:36.038Z,0
2017-02-14T02:23:45.487Z,0
2017-02-14T02:24:54.941Z,0
2017-02-14T02:26:04.379Z,0
2017-02-14T02:27:13.437Z,0
2017-02-14T02:28:22.890Z,0
2017-02-14T02:29:31.973Z,0
2017-02-14T02:30:41.048Z,0
2017-02-14T02:31:50.116Z,0
2017-02-14T02:32:59.561Z,0
2017-02-14T02:34:08.631Z,0
2017-02-14T02:35:18.463Z,0
2017-02-14T02:36:27.930Z,0
2017-02-14T02:37:36.998Z,0
2017-02-14T02:38:45.690Z,0
2017-02-14T02:39:55.519Z,0
2017-02-14T02:41:04.581Z,0
2017-02-14T02:42:13.648Z,0
2017-02-14T02:43:22.696Z,0
2017-02-14T02:44:32.510Z,0
2017-02-14T02:45:41.211Z,0
2017-02-14T02:46:50.298Z,0
2017-02-14T02:47:59.758Z,0
2017-02-14T02:49:09.612Z,0
2017-02-14T02:50:19.073Z,0
2017-02-14T02:51:28.134Z,0
2017-02-14T02:52:37.199Z,0
2017-02-14T02:53:46.312Z,0
2017-02-14T02:54:55.769Z,0
2017-02-14T02:56:05.606Z,0
2017-02-14T02:57:15.076Z,0
2017-02-14T02:58:24.901Z,0
2017-02-14T02:59:34.358Z,0
2017-02-14T03:00:44.196Z,0
2017-02-14T03:01:53.650Z,0
2017-02-14T03:03:02.742Z,0
2017-02-14T03:04:12.181Z,0
2017-02-14T03:05:21.621Z,0
2017-02-14T03:06:31.847Z,0
2017-02-14T03:07:41.433Z,0
2017-02-14T03:08:50.135Z,0
2017-02-14T03:09:59.192Z,0
2017-02-14T03:11:09.400Z,0
2017-02-14T03:12:18.116Z,0
2017-02-14T03:13:27.199Z,0
2017-02-14T03:14:37.016Z,0
2017-02-14T03:15:46.455Z,0
2017-02-14T03:16:55.898Z,0
2017-02-14T03:18:04.972Z,0
2017-02-14T03:19:14.805Z,0
2017-02-14T03:20:24.267Z,0
2017-02-14T03:21:33.348Z,0
2017-02-14T03:22:42.421Z,0
2017-02-14T03:23:51.481Z,0
2017-02-14T03:25:00.932Z,0
2017-02-14T03:26:09.987Z,0
2017-02-14T03:27:19.422Z,0
2017-02-14T03:28:28.474Z,0
2017-02-14T03:29:38.689Z,0
2017-02-14T03:30:47.757Z,0
2017-02-14T03:31:56.819Z,0
2017-02-14T03:33:05.884Z,0
2017-02-14T03:34:14.977Z,0
2017-02-14T03:35:24.822Z,0
2017-02-14T03:36:33.498Z,0
2017-02-14T03:37:43.348Z,0
2017-02-14T03:38:52.781Z,0
2017-02-14T03:40:01.848Z,0
2017-02-14T03:41:11.676Z,0
2017-02-14T03:42:21.492Z,0
2017-02-14T03:43:30.164Z,0
2017-02-14T03:44:39.219Z,0
2017-02-14T03:45:49.041Z,0
2017-02-14T03:46:58.513Z,0
2017-02-14T03:48:07.563Z,0
2017-02-14T03:49:16.623Z,0
2017-02-14T03:50:25.718Z,0
2017-02-14T03:51:34.402Z,0
2017-02-14T03:52:43.482Z,0
2017-02-14T03:53:53.318Z,0
2017-02-14T03:55:02.398Z,0
2017-02-14T03:56:12.237Z,0
2017-02-14T03:57:21.672Z,0
2017-02-14T03:58:31.123Z,0
2017-02-14T03:59:40.591Z,0
2017-02-14T04:00:49.652Z,0
2017-02-14T04:01:59.114Z,0
2017-02-14T04:03:08.588Z,0
2017-02-14T04:04:19.180Z,0
2017-02-14T04:05:28.622Z,0
2017-02-14T04:06:38.070Z,0
2017-02-14T04:07:46.750Z,0
2017-02-14T04:08:56.212Z,0
2017-02-14T04:10:05.673Z,0
2017-02-14T04:11:14.766Z,0
2017-02-14T04:12:24.227Z,0
2017-02-14T04:13:34.453Z,0
2017-02-14T04:14:44.662Z,0
2017-02-14T04:15:54.489Z,0
2017-02-14T04:17:03.938Z,0
2017-02-14T04:18:13.007Z,0
2017-02-14T04:19:21.674Z,0
2017-02-14T04:20:31.527Z,0
2017-02-14T04:21:40.592Z,0
2017-02-14T04:22:50.407Z,0
2017-02-14T04:23:59.852Z,0
2017-02-14T04:25:09.307Z,0
2017-02-14T04:26:18.756Z,0
2017-02-14T04:27:27.434Z,0
2017-02-14T04:28:37.291Z,0
2017-02-14T04:29:46.358Z,0
2017-02-14T04:30:56.193Z,0
2017-02-14T04:32:05.249Z,0
2017-02-14T04:33:14.700Z,0
2017-02-14T04:34:23.798Z,0
2017-02-14T04:35:33.627Z,0
2017-02-14T04:36:43.077Z,0
2017-02-14T04:37:51.746Z,0
2017-02-14T04:39:00.434Z,0
2017-02-14T04:40:09.893Z,0
2017-02-14T04:41:18.999Z,0
2017-02-14T04:42:28.838Z,0
2017-02-14T04:43:38.297Z,0
2017-02-14T04:44:47.772Z,0
2017-02-14T04:45:57.229Z,0
2017-02-14T04:47:06.697Z,0
2017-02-14T04:48:15.771Z,0
2017-02-14T04:49:24.460Z,0
2017-02-14T04:50:34.313Z,0
2017-02-14T04:51:43.795Z,0
2017-02-14T04:52:52.470Z,0
2017-02-14T04:54:01.556Z,0
2017-02-14T04:55:11.013Z,0
2017-02-14T04:56:19.702Z,0
2017-02-14T04:57:28.398Z,0
2017-02-14T04:58:37.830Z,0
2017-02-14T04:59:47.657Z,0
2017-02-14T05:00:57.479Z,0
2017-02-14T05:02:06.934Z,0
2017-02-14T05:03:16.755Z,0
2017-02-14T05:04:26.223Z,0
2017-02-14T05:05:36.054Z,0
2017-02-14T05:06:45.878Z,0
2017-02-14T05:07:54.961Z,0
2017-02-14T05:09:04.404Z,0
2017-02-14T05:10:13.862Z,0
2017-02-14T05:11:23.311Z,0
2017-02-14T05:12:32.767Z,0
2017-02-14T05:13:42.596Z,0
2017-02-14T05:14:51.690Z,0
2017-02-14T05:16:01.153Z,0
2017-02-14T05:17:10.608Z,0
2017-02-14T05:18:19.692Z,0
2017-02-14T05:19:29.150Z,0
2017-02-14T05:20:39.019Z,0
2017-02-14T05:21:48.115Z,0
2017-02-14T05:22:56.803Z,0
2017-02-14T05:24:06.243Z,0
2017-02-14T05:25:15.308Z,0
2017-02-14T05:26:24.380Z,0
2017-02-14T05:27:33.471Z,0
2017-02-14T05:28:42.545Z,0
2017-02-14T05:29:51.598Z,0
2017-02-14T05:31:00.691Z,0
2017-02-14T05:32:10.901Z,0
2017-02-14T05:33:19.961Z,0
2017-02-14T05:34:29.411Z,0
2017-02-14T05:35:38.094Z,0
2017-02-14T05:36:46.766Z,0
2017-02-14T05:37:55.837Z,0
2017-02-14T05:39:05.294Z,0
2017-02-14T05:40:14.360Z,0
2017-02-14T05:41:23.833Z,0
2017-02-14T05:42:32.520Z,0
2017-02-14T05:43:41.229Z,0
2017-02-14T05:44:49.929Z,0
2017-02-14T05:45:59.384Z,0
2017-02-14T05:47:08.856Z,0
2017-02-14T05:48:18.289Z,0
2017-02-14T05:49:27.735Z,0
2017-02-14T05:50:37.179Z,0
2017-02-14T05:51:46.238Z,0
2017-02-14T05:52:56.851Z,0
2017-02-14T05:54:05.909Z,0
2017-02-14T05:55:15.374Z,0
2017-02-14T05:56:24.815Z,0
2017-02-14T05:57:34.661Z,0
2017-02-14T05:58:44.117Z,0
2017-02-14T05:59:53.563Z,0
2017-02-14T06:01:03.004Z,0
2017-02-14T06:02:12.095Z,0
2017-02-14T06:03:21.929Z,0
2017-02-14T06:04:30.988Z,0
2017-02-14T06:05:40.068Z,0
2017-02-14T06:06:49.914Z,0
2017-02-14T06:07:58.978Z,0
2017-02-14T06:09:07.666Z,0
2017-02-14T06:10:16.745Z,0
2017-02-14T06:11:26.588Z,0
2017-02-14T06:12:35.658Z,0
2017-02-14T06:13:45.486Z,0
2017-02-14T06:14:55.328Z,0
2017-02-14T06:16:04.770Z,0
2017-02-14T06:17:13.841Z,0
2017-02-14T06:18:23.276Z,0
2017-02-14T06:19:33.098Z,0
2017-02-14T06:20:42.981Z,0
2017-02-14T06:21:52.061Z,0
2017-02-14T06:23:01.902Z,0
2017-02-14T06:24:10.973Z,0
2017-02-14T06:25:20.460Z,0
2017-02-14T06:26:29.534Z,0
2017-02-14T06:27:38.601Z,0
2017-02-14T06:28:48.437Z,0
2017-02-14T06:29:57.892Z,0
2017-02-14T06:31:06.951Z,0
2017-02-14T06:32:16.015Z,0
2017-02-14T06:33:24.711Z,0
2017-02-14T06:34:34.923Z,0
2017-02-14T06:35:44.004Z,0
2017-02-14T06:36:53.080Z,0
2017-02-14T06:38:02.907Z,5
2017-02-14T06:39:12.362Z,5
2017-02-14T06:40:21.047Z,5
2017-02-14T06:41:30.493Z,5
2017-02-14T06:42:39.598Z,5
2017-02-14T06:43:49.042Z,5
2017-02-14T06:44:58.478Z,10
2017-02-14T06:46:07.568Z,10
2017-02-14T06:47:17.023Z,10
2017-02-14T06:48:26.856Z,10
2017-02-14T06:49:36.325Z,15
2017-02-14T06:50:46.166Z,15
2017-02-14T06:51:55.233Z,15
2017-02-14T06:53:04.311Z,20
2017-02-14T06:54:13.366Z,20
2017-02-14T06:55:22.427Z,25
2017-02-14T06:56:31.493Z,25
2017-02-14T06:57:40.554Z,25
2017-02-14T06:58:49.607Z,30
2017-02-14T06:59:58.699Z,30
2017-02-14T07:01:08.166Z,35
2017-02-14T07:02:17.241Z,35
2017-02-14T07:03:26.702Z,40
2017-02-14T07:04:35.769Z,40
2017-02-14T07:05:44.829Z,45
2017-02-14T07:06:53.512Z,45
2017-02-14T07:08:02.576Z,50
2017-02-14T07:09:11.292Z,50
2017-02-14T07:10:20.763Z,55
2017-02-14T07:11:30.206Z,60
2017-02-14T07:12:39.278Z,60
2017-02-14T07:13:48.732Z,65
2017-02-14T07:14:58.173Z,65
2017-02-14T07:16:07.991Z,70
2017-02-14T07:17:17.071Z,70
2017-02-14T07:18:25.782Z,75
2017-02-14T07:19:35.624Z,80
2017-02-14T07:20:44.719Z,80
2017-02-14T07:21:53.395Z,85
2017-02-14T07:23:02.075Z,85
2017-02-14T07:24:12.286Z,90
2017-02-14T07:25:20.992Z,95
2017-02-14T07:26:31.608Z,95
2017-02-14T07:27:40.668Z,100
2017-02-14T07:28:49.734Z,100
2017-02-14T07:29:59.187Z,105
2017-02-14T07:31:08.250Z,105
2017-02-14T07:32:17.354Z,110
2017-02-14T07:33:26.416Z,115
2017-02-14T07:34:35.906Z,115
2017-02-14T07:35:44.611Z,120
2017-02-14T07:36:53.307Z,120
2017-02-14T07:38:03.133Z,125
2017-02-14T07:39:12.963Z,125
2017-02-14T07:40:23.178Z,130
2017-02-14T07:41:33.403Z,130
2017-02-14T07:42:42.096Z,135
2017-02-14T07:43:51.548Z,135
2017-02-14T07:45:00.995Z,135
2017-02-14T07:46:10.832Z,140
2017-02-14T07:47:20.278Z,140
2017-02-14T07:48:29.715Z,140
2017-02-14T07:49:38.766Z,145
2017-02-14T07:50:47.829Z,145
2017-02-14T07:51:58.045Z,150
2017-02-14T07:53:08.273Z,150
2017-02-14T07:54:18.513Z,155
2017-02-14T07:55:28.352Z,155
2017-02-14T07:56:37.827Z,160
2017-02-14T07:57:47.655Z,160
2017-02-14T07:58:57.481Z,165
2017-02-14T08:00:06.922Z,165
2017-02-14T08:01:15.972Z,165
2017-02-14T08:02:25.794Z,170
2017-02-14T08:03:34.851Z,170
2017-02-14T08:04:44.287Z,175
2017-02-14T08:05:54.127Z,175
2017-02-14T08:07:03.213Z,180
2017-02-14T08:08:13.039Z,180
2017-02-14T08:09:22.480Z,185
2017-02-14T08:10:32.707Z,185
2017-02-14T08:11:42.168Z,185
2017-02-14T08:12:51.616Z,190
2017-02-14T08:14:01.462Z,190
2017-02-14T08:15:11.688Z,195
2017-02-14T08:16:21.153Z,195
2017-02-14T08:17:30.621Z,195
2017-02-14T08:18:40.079Z,200
2017-02-14T08:19:48.753Z,200
2017-02-14T08:20:58.209Z,205
2017-02-14T08:22:07.666Z,205
2017-02-14T08:23:16.736Z,205
2017-02-14T08:24:26.565Z,210
2017-02-14T08:25:36.392Z,210
2017-02-14T08:26:46.206Z,210
2017-02-14T08:27:56.437Z,215
2017-02-14T08:29:05.131Z,215
2017-02-14T08:30:14.230Z,220
2017-02-14T08:31:23.667Z,220
2017-02-14T08:32:32.735Z,220
2017-02-14T08:33:42.183Z,225
2017-02-14T08:34:51.653Z,225
2017-02-14T08:36:01.094Z,225
2017-02-14T08:37:10.545Z,230
2017-02-14T08:38:20.386Z,230
2017-02-14T08:39:29.459Z,230
2017-02-14T08:40:39.303Z,235
2017-02-14T08:41:48.769Z,235
2017-02-14T08:42:58.209Z,235
2017-02-14T08:44:07.656Z,240
2017-02-14T08:45:17.104Z,240
2017-02-14T08:46:26.170Z,240
2017-02-14T08:47:36.391Z,245
2017-02-14T08:48:45.836Z,245
2017-02-14T08:49:54.923Z,245
2017-02-14T08:51:04.769Z,245
2017-02-14T08:52:14.236Z,250
2017-02-14T08:53:23.299Z,250
2017-02-14T08:54:33.147Z,250
2017-02-14T08:55:42.617Z,255
2017-02-14T08:56:52.067Z,255
2017-02-14T08:58:01.135Z,255
2017-02-14T08:59:10.224Z,260
2017-02-14T09:00:19.297Z,260
2017-02-14T09:01:28.778Z,260
2017-02-14T09:02:38.223Z,260
2017-02-14T09:03:47.668Z,265
2017-02-14T09:04:57.115Z,265
2017-02-14T09:06:06.569Z,265
2017-02-14T09:07:16.803Z,270
2017-02-14T09:08:26.282Z,270
2017-02-14T09:09:36.105Z,270
2017-02-14T09:10:45.225Z,275
2017-02-14T09:11:54.683Z,275
2017-02-14T09:13:04.520Z,275
2017-02-14T09:14:13.582Z,275
2017-02-14T09:15:22.663Z,280
2017-02-14T09:16:32.496Z,280
2017-02-14T09:17:41.962Z,280
2017-02-14T09:18:51.839Z,280
2017-02-14T09:20:01.278Z,285
2017-02-14T09:21:10.725Z,285
2017-02-14T09:22:19.788Z,285
2017-02-14T09:23:28.866Z,290
2017-02-14T09:24:37.942Z,310
2017-02-14T09:25:47.394Z,330
2017-02-14T09:26:56.852Z,335
2017-02-14T09:28:05.540Z,340
2017-02-14T09:29:14.622Z,345
2017-02-14T09:30:23.680Z,350
2017-02-14T09:31:33.121Z,350
2017-02-14T09:32:42.177Z,360
2017-02-14T09:33:51.622Z,360
2017-02-14T09:35:00.305Z,365
2017-02-14T09:36:10.149Z,365
2017-02-14T09:37:18.845Z,365
2017-02-14T09:38:28.313Z,370
2017-02-14T09:39:37.760Z,375
2017-02-14T09:40:46.820Z,380
2017-02-14T09:41:57.049Z,385
2017-02-14T09:43:06.125Z,395
2017-02-14T09:44:15.567Z,395
2017-02-14T09:45:25.046Z,400
2017-02-14T09:46:34.127Z,405
2017-02-14T09:47:43.589Z,460
2017-02-14T09:48:53.063Z,620
2017-02-14T09:50:02.897Z,780
2017-02-14T09:51:11.970Z,820
2017-02-14T09:52:21.415Z,855
2017-02-14T09:53:30.476Z,895
2017-02-14T09:54:40.296Z,890
2017-02-14T09:55:49.430Z,880
2017-02-14T09:56:58.496Z,880
2017-02-14T09:58:07.571Z,895
2017-02-14T09:59:16.278Z,910
2017-02-14T10:00:25.353Z,910
2017-02-14T10:01:34.041Z,920
2017-02-14T10:02:43.872Z,910
2017-02-14T10:03:52.952Z,910
2017-02-14T10:05:02.025Z,940
2017-02-14T10:06:11.488Z,980
2017-02-14T10:07:21.706Z,945
2017-02-14T10:08:31.550Z,930
2017-02-14T10:09:41.010Z,940
2017-02-14T10:10:50.126Z,940
2017-02-14T10:11:58.806Z,935
2017-02-14T10:13:08.635Z,930
2017-02-14T10:14:18.851Z,960
2017-02-14T10:15:29.083Z,995
2017-02-14T10:16:38.189Z,1025
2017-02-14T10:17:47.258Z,1020
2017-02-14T10:18:57.480Z,1045
2017-02-14T10:20:06.952Z,1045
2017-02-14T10:21:16.793Z,1055
2017-02-14T10:22:26.259Z,1055
2017-02-14T10:23:35.346Z,1050
2017-02-14T10:24:44.038Z,1050
2017-02-14T10:25:53.124Z,1040
2017-02-14T10:27:02.597Z,1035
2017-02-14T10:28:12.093Z,1025
2017-02-14T10:29:21.543Z,1045
2017-02-14T10:30:30.256Z,1060
2017-02-14T10:31:39.329Z,1060
2017-02-14T10:32:49.166Z,1070
2017-02-14T10:33:58.234Z,1100
2017-02-14T10:35:07.313Z,1085
2017-02-14T10:36:16.392Z,1080
2017-02-14T10:37:25.493Z,1105
2017-02-14T10:38:35.735Z,1105
2017-02-14T10:39:44.823Z,1095
2017-02-14T10:40:55.040Z,1095
2017-02-14T10:42:03.734Z,1130
2017-02-14T10:43:13.565Z,1150
2017-02-14T10:44:23.419Z,1145
2017-02-14T10:45:33.253Z,1120
2017-02-14T10:46:41.952Z,1105
2017-02-14T10:47:51.022Z,1105
2017-02-14T10:49:00.512Z,1095
2017-02-14T10:50:10.364Z,1170
2017-02-14T10:51:19.820Z,1190
2017-02-14T10:52:29.307Z,1155
2017-02-14T10:53:39.144Z,1165
2017-02-14T10:54:48.978Z,1165
2017-02-14T10:55:58.434Z,1175
2017-02-14T10:57:08.275Z,1195
2017-02-14T10:58:16.965Z,1205
2017-02-14T10:59:26.418Z,1205
2017-02-14T11:00:36.265Z,1140
2017-02-14T11:01:44.965Z,1185
2017-02-14T11:02:54.464Z,1190
2017-02-14T11:04:03.531Z,1195
2017-02-14T11:05:13.764Z,1195
2017-02-14T11:06:23.594Z,1200
2017-02-14T11:07:33.041Z,1220
2017-02-14T11:08:42.890Z,1235
2017-02-14T11:09:52.370Z,1190
2017-02-14T11:11:01.831Z,1195
2017-02-14T11:12:10.925Z,1200
2017-02-14T11:13:20.395Z,1120
2017-02-14T11:14:29.864Z,1135
2017-02-14T11:15:39.350Z,1235
2017-02-14T11:16:48.420Z,1230
2017-02-14T11:17:58.248Z,1245
2017-02-14T11:19:07.333Z,1275
2017-02-14T11:20:16.401Z,1260
2017-02-14T11:21:25.874Z,1245
2017-02-14T11:22:34.942Z,1255
2017-02-14T11:23:43.639Z,1215
2017-02-14T11:24:53.516Z,1250
2017-02-14T11:26:02.978Z,1255
2017-02-14T11:27:12.467Z,1240
2017-02-14T11:28:21.578Z,1240
2017-02-14T11:29:31.028Z,1220
2017-02-14T11:30:40.507Z,1275
2017-02-14T11:31:50.723Z,1255
2017-02-14T11:33:00.181Z,1295
2017-02-14T11:34:09.259Z,1325
2017-02-14T11:35:18.340Z,1305
2017-02-14T11:36:28.584Z,1275
2017-02-14T11:37:37.684Z,1260
2017-02-14T11:38:46.378Z,1310
2017-02-14T11:39:56.220Z,1285
2017-02-14T11:41:06.069Z,1245
2017-02-14T11:42:15.142Z,1250
2017-02-14T11:43:24.986Z,1245
2017-02-14T11:44:34.456Z,1300
2017-02-14T11:45:43.572Z,1300
2017-02-14T11:46:53.035Z,1255
2017-02-14T11:48:02.491Z,1145
2017-02-14T11:49:11.181Z,1040
2017-02-14T11:50:20.648Z,1015
2017-02-14T11:51:30.117Z,625
2017-02-14T11:52:39.569Z,335
2017-02-14T11:53:49.045Z,325
2017-02-14T11:54:58.135Z,320
2017-02-14T11:56:07.580Z,315
2017-02-14T11:57:17.040Z,315
2017-02-14T11:58:26.157Z,315
2017-02-14T11:59:35.619Z,315
2017-02-14T12:00:45.074Z,310
2017-02-14T12:01:54.146Z,310
2017-02-14T12:03:04.381Z,310
2017-02-14T12:04:13.481Z,310
2017-02-14T12:05:22.195Z,310
2017-02-14T12:06:32.414Z,310
2017-02-14T12:07:41.117Z,310
2017-02-14T12:08:50.572Z,310
2017-02-14T12:09:59.655Z,310
2017-02-14T12:11:09.487Z,310
2017-02-14T12:12:18.558Z,310
2017-02-14T12:13:27.644Z,310
2017-02-14T12:14:36.739Z,310
2017-02-14T12:15:45.813Z,310
2017-02-14T12:16:54.878Z,310
2017-02-14T12:18:03.582Z,310
2017-02-14T12:19:12.271Z,310
2017-02-14T12:20:21.755Z,310
2017-02-14T12:21:31.221Z,310
2017-02-14T12:22:41.059Z,310
2017-02-14T12:23:49.746Z,305
2017-02-14T12:24:58.812Z,305
2017-02-14T12:26:08.282Z,305
2017-02-14T12:27:17.740Z,305
2017-02-14T12:28:27.191Z,305
2017-02-14T12:29:36.649Z,305
2017-02-14T12:30:46.118Z,305
2017-02-14T12:31:55.188Z,305
2017-02-14T12:33:05.394Z,305
2017-02-14T12:34:14.462Z,305
2017-02-14T12:35:23.916Z,305
2017-02-14T12:36:32.591Z,305
2017-02-14T12:37:41.662Z,305
2017-02-14T12:38:50.752Z,300
2017-02-14T12:40:00.585Z,300
2017-02-14T12:41:10.425Z,300
2017-02-14T12:42:19.501Z,300
2017-02-14T12:43:28.950Z,300
2017-02-14T12:44:38.433Z,300
2017-02-14T12:45:47.500Z,300
2017-02-14T12:46:56.972Z,300
2017-02-14T12:48:06.821Z,300
2017-02-14T12:49:15.927Z,300
2017-02-14T12:50:24.995Z,300
2017-02-14T12:51:34.068Z,300
2017-02-14T12:52:44.280Z,300
2017-02-14T12:53:53.379Z,300
2017-02-14T12:55:03.213Z,300
2017-02-14T12:56:12.294Z,295
2017-02-14T12:57:21.356Z,295
2017-02-14T12:58:31.189Z,295
2017-02-14T12:59:40.651Z,295
2017-02-14T13:00:49.757Z,295
2017-02-14T13:01:58.840Z,295
2017-02-14T13:03:07.928Z,295
2017-02-14T13:04:16.627Z,295
2017-02-14T13:05:25.709Z,290
2017-02-14T13:06:35.153Z,290
2017-02-14T13:07:43.842Z,290
2017-02-14T13:08:53.302Z,290
2017-02-14T13:10:03.157Z,290
2017-02-14T13:11:12.602Z,290
2017-02-14T13:12:22.056Z,290
2017-02-14T13:13:31.519Z,290
2017-02-14T13:14:40.970Z,290
2017-02-14T13:15:51.195Z,285
2017-02-14T13:17:00.650Z,285
2017-02-14T13:18:09.768Z,290
2017-02-14T13:19:18.867Z,290
2017-02-14T13:20:28.338Z,285
2017-02-14T13:21:37.464Z,285
2017-02-14T13:22:46.570Z,285
2017-02-14T13:23:56.025Z,285
2017-02-14T13:25:05.134Z,285
2017-02-14T13:26:14.215Z,285
2017-02-14T13:27:23.297Z,285
2017-02-14T13:28:32.380Z,285
2017-02-14T13:29:41.063Z,285
2017-02-14T13:30:50.556Z,280
2017-02-14T13:31:59.660Z,280
2017-02-14T13:33:09.511Z,280
2017-02-14T13:34:18.583Z,280
2017-02-14T13:35:28.420Z,280
2017-02-14T13:36:37.128Z,280
2017-02-14T13:37:46.967Z,280
2017-02-14T13:38:56.434Z,280
2017-02-14T13:40:05.900Z,280
2017-02-14T13:41:14.971Z,280
2017-02-14T13:42:24.067Z,280
2017-02-14T13:43:33.162Z,275
2017-02-14T13:44:42.612Z,275
2017-02-14T13:45:52.078Z,275
2017-02-14T13:47:01.553Z,275
2017-02-14T13:48:11.010Z,275
2017-02-14T13:49:20.095Z,275
2017-02-14T13:50:29.166Z,275
2017-02-14T13:51:38.642Z,275
2017-02-14T13:52:47.342Z,275
2017-02-14T13:53:57.949Z,275
2017-02-14T13:55:07.793Z,275
2017-02-14T13:56:16.871Z,275
2017-02-14T13:57:25.568Z,275
2017-02-14T13:58:34.635Z,270
2017-02-14T13:59:44.086Z,270
2017-02-14T14:00:53.930Z,270
2017-02-14T14:02:04.158Z,270
2017-02-14T14:03:13.606Z,270
2017-02-14T14:04:23.057Z,270
2017-02-14T14:05:32.136Z,270
2017-02-14T14:06:41.213Z,270
2017-02-14T14:07:50.691Z,270
2017-02-14T14:08:59.386Z,265
2017-02-14T14:10:08.453Z,265
2017-02-14T14:11:17.156Z,265
2017-02-14T14:12:26.604Z,265
2017-02-14T14:13:36.062Z,265
2017-02-14T14:14:45.154Z,265
2017-02-14T14:15:54.615Z,265
2017-02-14T14:17:04.091Z,260
2017-02-14T14:18:13.166Z,260
2017-02-14T14:19:23.015Z,260
2017-02-14T14:20:31.693Z,260
2017-02-14T14:21:41.534Z,265
2017-02-14T14:22:50.982Z,260
2017-02-14T14:24:00.111Z,260
2017-02-14T14:25:10.341Z,260
2017-02-14T14:26:19.417Z,255
2017-02-14T14:27:28.128Z,255
2017-02-14T14:28:37.576Z,255
2017-02-14T14:29:47.043Z,255
2017-02-14T14:30:56.888Z,255
2017-02-14T14:32:05.974Z,250
2017-02-14T14:33:15.072Z,250
2017-02-14T14:34:24.532Z,250
2017-02-14T14:35:34.373Z,250
2017-02-14T14:36:43.447Z,250
2017-02-14T14:37:53.297Z,250
2017-02-14T14:39:03.307Z,250
2017-02-14T14:40:13.530Z,245
2017-02-14T14:41:22.623Z,245
2017-02-14T14:42:32.202Z,245
2017-02-14T14:43:41.647Z,245
2017-02-14T14:44:50.737Z,240
2017-02-14T14:46:00.216Z,240
2017-02-14T14:47:09.295Z,240
2017-02-14T14:48:17.987Z,240
2017-02-14T14:49:27.442Z,235
2017-02-14T14:50:36.507Z,235
2017-02-14T14:51:45.968Z,235
2017-02-14T14:52:55.442Z,235
2017-02-14T14:54:04.147Z,235
2017-02-14T14:55:13.253Z,235
2017-02-14T14:56:23.098Z,230
2017-02-14T14:57:32.964Z,230
2017-02-14T14:58:42.028Z,230
2017-02-14T14:59:50.736Z,230
2017-02-14T15:00:59.814Z,225
2017-02-14T15:02:08.903Z,225
2017-02-14T15:03:17.986Z,225
2017-02-14T15:04:28.220Z,225
2017-02-14T15:05:37.689Z,220
2017-02-14T15:06:47.538Z,220
2017-02-14T15:07:56.610Z,220
2017-02-14T15:09:06.090Z,220
2017-02-14T15:10:16.299Z,220
2017-02-14T15:11:25.758Z,215
2017-02-14T15:12:35.609Z,215
2017-02-14T15:13:45.096Z,215
2017-02-14T15:14:54.541Z,215
2017-02-14T15:16:04.004Z,220
2017-02-14T15:17:12.709Z,215
2017-02-14T15:18:22.167Z,220
2017-02-14T15:19:31.621Z,220
2017-02-14T15:20:41.848Z,220
2017-02-14T15:21:51.310Z,220
2017-02-14T15:23:00.381Z,220
2017-02-14T15:24:09.870Z,220
2017-02-14T15:25:18.964Z,220
2017-02-14T15:26:28.039Z,225
2017-02-14T15:27:37.111Z,225
2017-02-14T15:28:46.580Z,225
2017-02-14T15:29:56.033Z,225
2017-02-14T15:31:05.524Z,225
2017-02-14T15:32:14.610Z,230
2017-02-14T15:33:24.090Z,225
2017-02-14T15:34:33.957Z,225
2017-02-14T15:35:43.056Z,225
2017-02-14T15:36:52.148Z,230
2017-02-14T15:38:01.221Z,245
2017-02-14T15:39:11.062Z,255
2017-02-14T15:40:20.138Z,250
2017-02-14T15:41:28.825Z,245
2017-02-14T15:42:37.903Z,240
2017-02-14T15:43:47.381Z,235
2017-02-14T15:44:56.458Z,235
2017-02-14T15:46:05.934Z,230
2017-02-14T15:47:15.383Z,225
2017-02-14T15:48:24.838Z,225
2017-02-14T15:49:34.292Z,220
2017-02-14T15:50:42.991Z,215
2017-02-14T15:51:52.087Z,210
2017-02-14T15:53:00.789Z,210
2017-02-14T15:54:09.877Z,205
2017-02-14T15:55:19.342Z,200
2017-02-14T15:56:29.217Z,195
2017-02-14T15:57:38.686Z,200
2017-02-14T15:58:47.760Z,205
2017-02-14T15:59:57.221Z,220
2017-02-14T16:01:06.695Z,295
2017-02-14T16:02:15.768Z,345
2017-02-14T16:03:25.258Z,275
2017-02-14T16:04:34.735Z,235
2017-02-14T16:05:44.583Z,225
2017-02-14T16:06:54.056Z,215
2017-02-14T16:08:03.140Z,205
2017-02-14T16:09:12.611Z,200
2017-02-14T16:10:21.693Z,185
2017-02-14T16:11:31.547Z,180
2017-02-14T16:12:41.013Z,170
2017-02-14T16:13:50.873Z,160
2017-02-14T16:15:01.109Z,150
2017-02-14T16:16:10.215Z,150
2017-02-14T16:17:19.663Z,140
2017-02-14T16:18:29.120Z,130
2017-02-14T16:19:38.580Z,125
2017-02-14T16:20:48.073Z,115